Time;durP1;ratioP1;P1;durP2;ratioP2;P2;SDS_P1;SDS_P2;PMS_P1;PMS_P2;Temp;Humidity;BMP_temperature;BMP_pressure;BME280_temperature;BME280_humidity;BME280_pressure;Samples;Min_cycle;Max_cycle;Signal;HPM_P1;HPM_P2
2021/07/23 00:01:29;;;;;;;10.23;5.05;;;;;;;;;;5029521;28;20080;-58
2021/07/23 00:03:57;;;;;;;10.23;5.22;;;;;;;;;;5028311;28;20143;-59
2021/07/23 00:06:24;;;;;;;9.25;4.45;;;;;;;;;;5029988;28;20029;-59
2021/07/23 00:08:52;;;;;;;11.93;5.03;;;;;;;;;;5028933;28;20091;-58
2021/07/23 00:11:17;;;;;;;9.75;4.32;;;;;;;;;;5011704;28;20033;-58
2021/07/23 00:13:42;;;;;;;16.65;5.18;;;;;;;;;;5010516;28;21873;-57
2021/07/23 00:16:10;;;;;;;9.57;4.85;;;;;;;;;;5010745;28;20488;-59
2021/07/23 00:18:40;;;;;;;11.77;5.20;;;;;;;;;;5025585;28;20059;-58
2021/07/23 00:21:05;;;;;;;14.77;5.72;;;;;;;;;;5015983;28;20037;-59
2021/07/23 00:23:31;;;;;;;8.05;4.65;;;;;;;;;;5025757;28;20083;-59
2021/07/23 00:25:56;;;;;;;8.43;4.75;;;;;;;;;;5029080;28;20479;-58
2021/07/23 00:28:24;;;;;;;8.38;4.85;;;;;;;;;;5026418;28;20131;-58
2021/07/23 00:30:52;;;;;;;11.40;5.00;;;;;;;;;;5029836;28;20838;-57
2021/07/23 00:33:20;;;;;;;8.52;4.60;;;;;;;;;;5030157;28;20060;-58
2021/07/23 00:35:45;;;;;;;8.65;5.22;;;;;;;;;;5028636;28;20102;-58
2021/07/23 00:38:13;;;;;;;8.98;4.72;;;;;;;;;;5028620;28;20033;-58
2021/07/23 00:40:39;;;;;;;12.50;4.80;;;;;;;;;;5028807;28;20052;-58
2021/07/23 00:43:09;;;;;;;9.63;4.57;;;;;;;;;;5029005;28;20029;-59
2021/07/23 00:45:37;;;;;;;9.88;4.90;;;;;;;;;;5025843;28;20048;-58
2021/07/23 00:48:05;;;;;;;7.60;4.70;;;;;;;;;;5027774;28;20033;-58
2021/07/23 00:50:30;;;;;;;6.88;4.20;;;;;;;;;;5029958;28;20048;-58
2021/07/23 00:52:57;;;;;;;10.18;4.85;;;;;;;;;;5029069;28;20033;-58
2021/07/23 00:55:25;;;;;;;12.32;4.68;;;;;;;;;;5018433;28;20109;-58
2021/07/23 00:57:57;;;;;;;8.63;4.50;;;;;;;;;;5029489;28;20025;-59
2021/07/23 01:00:25;;;;;;;7.13;4.22;;;;;;;;;;5027207;28;20033;-58
2021/07/23 01:02:55;;;;;;;7.57;3.80;;;;;;;;;;5029454;28;20438;-59
2021/07/23 01:05:23;;;;;;;6.13;4.07;;;;;;;;;;5029398;28;20032;-59
2021/07/23 01:07:49;;;;;;;9.60;4.03;;;;;;;;;;5028539;28;20033;-59
2021/07/23 01:10:20;;;;;;;8.23;3.30;;;;;;;;;;5026702;28;20036;-59
2021/07/23 01:12:48;;;;;;;7.07;4.27;;;;;;;;;;5019376;28;20072;-59
2021/07/23 01:15:13;;;;;;;4.35;2.63;;;;;;;;;;4998967;28;20151;-59
2021/07/23 01:17:42;;;;;;;5.72;3.47;;;;;;;;;;5027601;28;20037;-59
2021/07/23 01:20:16;;;;;;;6.97;3.15;;;;;;;;;;5029158;28;20610;-59
2021/07/23 01:22:42;;;;;;;5.97;2.88;;;;;;;;;;5019000;28;20673;-59
2021/07/23 01:25:08;;;;;;;4.25;3.03;;;;;;;;;;5027153;28;20040;-59
2021/07/23 01:27:46;;;;;;;6.65;3.15;;;;;;;;;;5030406;28;20052;-60
2021/07/23 01:30:11;;;;;;;9.07;3.05;;;;;;;;;;5014087;28;20041;-58
2021/07/23 01:32:39;;;;;;;5.10;2.72;;;;;;;;;;5030665;28;20090;-58
2021/07/23 01:35:07;;;;;;;4.13;2.53;;;;;;;;;;5012417;28;20083;-59
2021/07/23 01:37:33;;;;;;;8.05;2.75;;;;;;;;;;5029787;28;20044;-58
2021/07/23 01:39:59;;;;;;;6.63;2.65;;;;;;;;;;5013249;28;20392;-58
2021/07/23 01:42:28;;;;;;;3.95;2.55;;;;;;;;;;5028425;28;20103;-58
2021/07/23 01:44:54;;;;;;;8.27;2.85;;;;;;;;;;5027393;28;20616;-59
2021/07/23 01:47:20;;;;;;;5.57;2.92;;;;;;;;;;5029446;28;20029;-58
2021/07/23 01:49:48;;;;;;;5.75;2.78;;;;;;;;;;5022057;28;20060;-59
2021/07/23 01:52:16;;;;;;;8.30;2.78;;;;;;;;;;5029544;28;20037;-59
2021/07/23 01:54:41;;;;;;;6.72;3.17;;;;;;;;;;5002069;28;20037;-58
2021/07/23 01:57:09;;;;;;;7.13;2.40;;;;;;;;;;4996149;28;20070;-57
2021/07/23 01:59:36;;;;;;;3.33;2.47;;;;;;;;;;5033905;28;20025;-58
2021/07/23 02:02:04;;;;;;;6.68;2.83;;;;;;;;;;5032521;28;20724;-58
2021/07/23 02:05:02;;;;;;;7.03;2.83;;;;;;;;;;5014480;28;20032;-59
2021/07/23 02:07:32;;;;;;;3.75;2.75;;;;;;;;;;5015414;28;20032;-59
2021/07/23 02:10:00;;;;;;;6.03;3.03;;;;;;;;;;5034554;28;20064;-58
2021/07/23 02:12:28;;;;;;;7.78;3.90;;;;;;;;;;5031513;28;20020;-58
2021/07/23 02:14:53;;;;;;;5.07;3.10;;;;;;;;;;4999647;28;20128;-59
2021/07/23 02:17:23;;;;;;;5.00;3.40;;;;;;;;;;5021509;28;20029;-58
2021/07/23 02:19:51;;;;;;;7.22;3.20;;;;;;;;;;5030107;28;20119;-58
2021/07/23 02:22:16;;;;;;;6.70;2.92;;;;;;;;;;5031409;28;20031;-58
2021/07/23 02:24:44;;;;;;;9.05;3.67;;;;;;;;;;5030885;28;20048;-58
2021/07/23 02:27:12;;;;;;;7.88;2.92;;;;;;;;;;5031127;28;20037;-58
2021/07/23 02:29:38;;;;;;;7.05;3.00;;;;;;;;;;5030830;28;20032;-58
2021/07/23 02:32:04;;;;;;;5.95;3.22;;;;;;;;;;5032975;28;20036;-59
2021/07/23 02:34:34;;;;;;;5.85;3.08;;;;;;;;;;5013108;28;20060;-59
2021/07/23 02:37:00;;;;;;;6.75;3.08;;;;;;;;;;5048750;28;20488;-58
2021/07/23 02:39:35;;;;;;;8.68;2.97;;;;;;;;;;5032956;28;20033;-59
2021/07/23 02:42:01;;;;;;;11.50;3.53;;;;;;;;;;5031670;28;20048;-58
2021/07/23 02:44:26;;;;;;;7.30;3.28;;;;;;;;;;5012828;28;20031;-58
2021/07/23 02:46:54;;;;;;;11.30;3.20;;;;;;;;;;5033011;28;20040;-59
2021/07/23 02:49:21;;;;;;;5.57;3.55;;;;;;;;;;5031906;28;20033;-60
2021/07/23 02:51:49;;;;;;;7.97;3.22;;;;;;;;;;5032714;28;20060;-59
2021/07/23 02:54:20;;;;;;;10.38;4.15;;;;;;;;;;5031260;28;20047;-58
2021/07/23 02:56:46;;;;;;;8.15;3.65;;;;;;;;;;5033509;28;20056;-60
2021/07/23 02:59:11;;;;;;;7.18;3.75;;;;;;;;;;4995114;28;20124;-58
2021/07/23 03:01:39;;;;;;;9.05;3.75;;;;;;;;;;5031320;28;20053;-57
2021/07/23 03:04:07;;;;;;;9.85;4.07;;;;;;;;;;5031927;28;20078;-59
2021/07/23 03:06:32;;;;;;;8.32;3.58;;;;;;;;;;4995061;28;20041;-58
2021/07/23 03:09:02;;;;;;;5.85;3.40;;;;;;;;;;5030881;28;20097;-58
2021/07/23 03:11:30;;;;;;;9.02;3.78;;;;;;;;;;5032509;28;21085;-58
2021/07/23 03:13:58;;;;;;;14.15;4.00;;;;;;;;;;5027613;28;20100;-59
2021/07/23 03:16:26;;;;;;;8.18;4.18;;;;;;;;;;5002279;28;20032;-57
2021/07/23 03:18:54;;;;;;;6.03;3.38;;;;;;;;;;5030301;28;20082;-58
2021/07/23 03:21:21;;;;;;;5.50;3.58;;;;;;;;;;5013521;28;20017;-59
2021/07/23 03:23:54;;;;;;;10.57;3.65;;;;;;;;;;5033469;28;20486;-58
2021/07/23 03:26:19;;;;;;;9.45;4.22;;;;;;;;;;4997331;28;20037;-59
2021/07/23 03:28:50;;;;;;;8.18;4.47;;;;;;;;;;5032109;28;20028;-59
2021/07/23 03:31:17;;;;;;;10.02;4.15;;;;;;;;;;5036876;28;20037;-58
2021/07/23 03:33:45;;;;;;;11.90;4.20;;;;;;;;;;5014289;28;20033;-58
2021/07/23 03:36:10;;;;;;;9.18;4.55;;;;;;;;;;5032346;28;20052;-58
2021/07/23 03:38:43;;;;;;;7.05;3.25;;;;;;;;;;5029035;28;20107;-58
2021/07/23 03:41:08;;;;;;;6.05;3.50;;;;;;;;;;5014872;28;20476;-58
2021/07/23 03:43:34;;;;;;;13.63;4.60;;;;;;;;;;5030662;28;20124;-58
2021/07/23 03:46:04;;;;;;;7.80;4.88;;;;;;;;;;5030526;28;20031;-59
2021/07/23 03:48:30;;;;;;;8.52;4.40;;;;;;;;;;5031860;28;20032;-58
2021/07/23 03:50:58;;;;;;;10.30;5.25;;;;;;;;;;5030133;28;20045;-58
2021/07/23 03:53:28;;;;;;;9.20;4.03;;;;;;;;;;5029355;28;20644;-58
2021/07/23 03:55:54;;;;;;;11.07;5.20;;;;;;;;;;5035856;28;20033;-58
2021/07/23 03:58:19;;;;;;;12.43;5.40;;;;;;;;;;5012416;28;20036;-58
2021/07/23 04:00:47;;;;;;;9.02;5.35;;;;;;;;;;4997593;28;20044;-58
2021/07/23 04:03:13;;;;;;;8.65;5.15;;;;;;;;;;5029504;28;21896;-58
2021/07/23 04:05:38;;;;;;;10.82;4.88;;;;;;;;;;5014149;28;20068;-57
2021/07/23 04:08:03;;;;;;;8.85;4.82;;;;;;;;;;5026995;28;20036;-58
2021/07/23 04:10:32;;;;;;;12.48;5.05;;;;;;;;;;5028972;28;20082;-58
2021/07/23 04:12:59;;;;;;;9.13;4.85;;;;;;;;;;4996817;28;20032;-59
2021/07/23 04:15:25;;;;;;;11.88;4.22;;;;;;;;;;5012079;28;20044;-59
2021/07/23 04:17:50;;;;;;;6.53;4.20;;;;;;;;;;5029858;28;20029;-57
2021/07/23 04:20:16;;;;;;;8.48;4.88;;;;;;;;;;5029101;28;22054;-59
2021/07/23 04:22:44;;;;;;;8.23;4.32;;;;;;;;;;5030025;28;20037;-59
2021/07/23 04:25:13;;;;;;;6.00;3.83;;;;;;;;;;5029284;28;20761;-58
2021/07/23 04:27:38;;;;;;;9.25;4.80;;;;;;;;;;5011739;28;20052;-58
2021/07/23 04:30:04;;;;;;;9.55;4.68;;;;;;;;;;5029603;28;20029;-58
2021/07/23 04:32:32;;;;;;;7.88;4.60;;;;;;;;;;5028744;28;20076;-57
2021/07/23 04:35:01;;;;;;;8.63;4.28;;;;;;;;;;5030502;28;20051;-57
2021/07/23 04:37:26;;;;;;;10.75;4.32;;;;;;;;;;5028447;28;20567;-59
2021/07/23 04:39:54;;;;;;;7.57;4.45;;;;;;;;;;5032036;28;20056;-58
2021/07/23 04:42:24;;;;;;;10.82;5.18;;;;;;;;;;5027908;28;20941;-58
2021/07/23 04:44:52;;;;;;;8.77;5.30;;;;;;;;;;5030759;28;20045;-59
2021/07/23 04:47:17;;;;;;;9.23;5.25;;;;;;;;;;5029596;28;20115;-58
2021/07/23 04:49:43;;;;;;;8.13;4.63;;;;;;;;;;5027562;28;20407;-58
2021/07/23 04:52:09;;;;;;;8.93;5.00;;;;;;;;;;5028210;28;20044;-58
2021/07/23 04:54:37;;;;;;;11.48;4.70;;;;;;;;;;5026851;28;20397;-58
2021/07/23 04:57:05;;;;;;;11.63;5.82;;;;;;;;;;5030784;28;20039;-58
2021/07/23 04:59:33;;;;;;;10.57;4.85;;;;;;;;;;5027721;28;20040;-58
2021/07/23 05:01:59;;;;;;;12.00;5.75;;;;;;;;;;5027665;28;20055;-59
2021/07/23 05:04:27;;;;;;;10.52;5.70;;;;;;;;;;5011912;28;20097;-59
2021/07/23 05:06:52;;;;;;;8.27;4.50;;;;;;;;;;5025796;28;20062;-59
2021/07/23 05:09:18;;;;;;;12.18;4.80;;;;;;;;;;5008549;28;20037;-57
2021/07/23 05:11:44;;;;;;;9.70;5.68;;;;;;;;;;5030514;28;20598;-59
2021/07/23 05:14:09;;;;;;;8.80;5.22;;;;;;;;;;5025800;28;20128;-58
2021/07/23 05:16:38;;;;;;;11.60;5.95;;;;;;;;;;5027924;28;20024;-59
2021/07/23 05:19:31;;;;;;;10.40;6.38;;;;;;;;;;5027883;28;20114;-59
2021/07/23 05:21:56;;;;;;;10.70;6.45;;;;;;;;;;5017412;28;20496;-58
2021/07/23 05:24:24;;;;;;;14.32;7.03;;;;;;;;;;5029555;28;20110;-58
2021/07/23 05:26:54;;;;;;;15.75;8.25;;;;;;;;;;5027440;28;20047;-58
2021/07/23 05:29:37;;;;;;;14.18;7.43;;;;;;;;;;5012551;28;21050;-59
2021/07/23 05:32:06;;;;;;;16.27;8.20;;;;;;;;;;5033349;28;20021;-59
2021/07/23 05:34:42;;;;;;;13.98;7.57;;;;;;;;;;5034280;28;20037;-58
2021/07/23 05:37:08;;;;;;;15.10;8.77;;;;;;;;;;5033625;28;20094;-58
2021/07/23 05:39:33;;;;;;;16.83;9.40;;;;;;;;;;5018934;28;20926;-59
2021/07/23 05:42:02;;;;;;;18.20;9.90;;;;;;;;;;5033237;28;20043;-58
2021/07/23 05:44:29;;;;;;;19.83;10.13;;;;;;;;;;5031866;28;22238;-58
2021/07/23 05:47:05;;;;;;;16.17;8.75;;;;;;;;;;5028150;28;20028;-57
2021/07/23 05:49:31;;;;;;;15.93;9.88;;;;;;;;;;5029472;28;20028;-58
2021/07/23 05:52:01;;;;;;;16.27;9.43;;;;;;;;;;5031757;28;20122;-58
2021/07/23 05:54:29;;;;;;;16.38;9.88;;;;;;;;;;5016226;28;20764;-58
2021/07/23 05:56:57;;;;;;;21.20;10.30;;;;;;;;;;5049584;28;20064;-59
2021/07/23 05:59:23;;;;;;;14.98;9.25;;;;;;;;;;5030718;28;20027;-59
2021/07/23 06:01:50;;;;;;;16.38;10.45;;;;;;;;;;5032359;28;20036;-58
2021/07/23 06:04:16;;;;;;;15.90;9.15;;;;;;;;;;5011086;28;20094;-58
2021/07/23 06:06:41;;;;;;;19.92;10.30;;;;;;;;;;5016008;28;20042;-57
2021/07/23 06:09:16;;;;;;;22.70;10.00;;;;;;;;;;5032154;28;20630;-59
2021/07/23 06:11:43;;;;;;;13.68;9.32;;;;;;;;;;5020058;28;20099;-59
2021/07/23 06:14:09;;;;;;;15.77;9.02;;;;;;;;;;5031941;28;20033;-59
2021/07/23 06:16:41;;;;;;;16.60;9.15;;;;;;;;;;5031776;28;20111;-58
2021/07/23 06:19:06;;;;;;;16.83;8.88;;;;;;;;;;5031916;28;20039;-58
2021/07/23 06:21:31;;;;;;;14.88;9.30;;;;;;;;;;5031640;28;20049;-58
2021/07/23 06:23:59;;;;;;;15.23;7.57;;;;;;;;;;5032452;28;20098;-59
2021/07/23 06:26:25;;;;;;;15.10;8.65;;;;;;;;;;5030549;28;20029;-58
2021/07/23 06:29:31;;;;;;;14.57;8.40;;;;;;;;;;5029297;28;20445;-59
2021/07/23 06:32:02;;;;;;;15.00;8.65;;;;;;;;;;5032428;28;20123;-58
2021/07/23 06:34:48;;;;;;;15.13;8.10;;;;;;;;;;5028033;28;20710;-58
2021/07/23 06:37:20;;;;;;;12.70;7.93;;;;;;;;;;5031228;28;20028;-59
2021/07/23 06:39:48;;;;;;;17.10;8.38;;;;;;;;;;5031597;28;20120;-59
2021/07/23 06:42:14;;;;;;;15.95;7.88;;;;;;;;;;5012207;28;20059;-58
2021/07/23 06:45:01;;;;;;;17.33;8.95;;;;;;;;;;5030419;28;20032;-58
2021/07/23 06:47:29;;;;;;;16.95;8.30;;;;;;;;;;5022727;28;20515;-57
2021/07/23 06:49:57;;;;;;;16.40;8.40;;;;;;;;;;5027554;28;20044;-58
2021/07/23 06:52:23;;;;;;;14.15;8.13;;;;;;;;;;5033333;28;20044;-57
2021/07/23 06:58:26;;;;;;;11.50;7.20;;;;;;;;;;5031485;28;20051;-59
2021/07/23 07:00:51;;;;;;;15.00;7.65;;;;;;;;;;5030812;28;20048;-59
2021/07/23 07:03:16;;;;;;;13.05;7.15;;;;;;;;;;5033631;28;20059;-58
2021/07/23 07:05:42;;;;;;;10.98;6.72;;;;;;;;;;5032823;28;20037;-57
2021/07/23 07:08:10;;;;;;;13.30;6.95;;;;;;;;;;5029942;28;20068;-58
2021/07/23 07:10:35;;;;;;;9.80;6.45;;;;;;;;;;5015316;28;20036;-58
2021/07/23 07:13:01;;;;;;;9.60;6.55;;;;;;;;;;5018983;28;20051;-59
2021/07/23 07:15:31;;;;;;;15.45;6.32;;;;;;;;;;5029550;28;20093;-59
2021/07/23 07:18:00;;;;;;;13.38;6.47;;;;;;;;;;5019220;28;20028;-59
2021/07/23 07:20:26;;;;;;;10.45;5.25;;;;;;;;;;5015412;28;20021;-58
2021/07/23 07:22:54;;;;;;;9.05;5.05;;;;;;;;;;5030695;28;20040;-58
2021/07/23 07:25:27;;;;;;;7.60;4.05;;;;;;;;;;5029864;28;20032;-58
2021/07/23 07:27:58;;;;;;;7.97;4.60;;;;;;;;;;5010737;28;20048;-58
2021/07/23 07:30:28;;;;;;;7.15;4.25;;;;;;;;;;5032750;28;20040;-59
2021/07/23 07:32:58;;;;;;;9.88;4.00;;;;;;;;;;5003485;28;20767;-59
2021/07/23 07:35:23;;;;;;;7.43;4.38;;;;;;;;;;5014106;28;20120;-58
2021/07/23 07:37:49;;;;;;;9.32;4.10;;;;;;;;;;5031548;28;20032;-59
2021/07/23 07:40:17;;;;;;;10.20;3.67;;;;;;;;;;5029418;28;20559;-59
2021/07/23 07:42:45;;;;;;;10.90;3.38;;;;;;;;;;5028331;28;20041;-60
2021/07/23 07:45:13;;;;;;;11.25;3.08;;;;;;;;;;5029567;28;20041;-58
2021/07/23 07:47:42;;;;;;;5.07;3.00;;;;;;;;;;5032655;28;21050;-59
2021/07/23 07:50:10;;;;;;;4.72;3.08;;;;;;;;;;5047569;28;20598;-58
2021/07/23 07:52:38;;;;;;;7.63;3.25;;;;;;;;;;5016048;28;20657;-58
2021/07/23 07:55:09;;;;;;;9.13;2.65;;;;;;;;;;5028901;28;20029;-58
2021/07/23 07:57:37;;;;;;;3.70;2.83;;;;;;;;;;5031546;28;20724;-58
2021/07/23 08:00:07;;;;;;;7.15;2.90;;;;;;;;;;4993025;28;20040;-58
2021/07/23 08:02:37;;;;;;;7.47;2.65;;;;;;;;;;5030992;28;20036;-58
2021/07/23 08:05:05;;;;;;;5.65;2.83;;;;;;;;;;5029912;28;20064;-58
2021/07/23 08:07:34;;;;;;;7.55;2.53;;;;;;;;;;5011720;28;20174;-58
2021/07/23 08:13:38;;;;;;;4.20;2.05;;;;;;;;;;5028211;28;20506;-58
2021/07/23 08:16:04;;;;;;;5.18;2.42;;;;;;;;;;5012458;28;20114;-58
2021/07/23 08:18:37;;;;;;;3.33;2.08;;;;;;;;;;5028272;28;20028;-60
2021/07/23 08:21:08;;;;;;;4.28;1.88;;;;;;;;;;5027247;28;20032;-58
2021/07/23 08:23:36;;;;;;;2.35;1.58;;;;;;;;;;5030128;28;21861;-58
2021/07/23 08:26:36;;;;;;;6.55;2.40;;;;;;;;;;5013179;28;20028;-58
2021/07/23 08:29:01;;;;;;;4.15;2.15;;;;;;;;;;5011543;28;20095;-58
2021/07/23 08:31:27;;;;;;;9.52;4.95;;;;;;;;;;5009820;28;20036;-57
2021/07/23 08:37:36;;;;;;;8.73;4.32;;;;;;;;;;5031544;28;20052;-58
2021/07/23 08:40:36;;;;;;;6.38;4.20;;;;;;;;;;5030308;28;20032;-58
2021/07/23 08:43:04;;;;;;;6.85;3.72;;;;;;;;;;5030328;28;20033;-58
2021/07/23 08:45:29;;;;;;;7.88;3.88;;;;;;;;;;5030094;28;20120;-58
2021/07/23 08:47:58;;;;;;;5.25;3.17;;;;;;;;;;5029916;28;20033;-58
2021/07/23 08:50:26;;;;;;;5.93;2.97;;;;;;;;;;5030565;28;20128;-59
2021/07/23 08:52:55;;;;;;;6.97;3.55;;;;;;;;;;5029431;28;20037;-59
2021/07/23 08:55:32;;;;;;;7.75;3.53;;;;;;;;;;5027135;28;20389;-60
2021/07/23 09:01:54;;;;;;;9.45;2.88;;;;;;;;;;5030755;28;20064;-59
2021/07/23 09:08:25;;;;;;;10.07;2.67;;;;;;;;;;5021130;28;20114;-59
2021/07/23 09:11:04;;;;;;;2.55;1.90;;;;;;;;;;5030870;28;20986;-59
2021/07/23 09:13:32;;;;;;;4.05;2.08;;;;;;;;;;5027016;28;22109;-59
2021/07/23 09:16:00;;;;;;;5.10;2.35;;;;;;;;;;5030102;28;20029;-58
2021/07/23 09:18:49;;;;;;;4.05;2.40;;;;;;;;;;5026474;28;20045;-59
2021/07/23 09:21:20;;;;;;;4.57;2.58;;;;;;;;;;5012535;28;20048;-60
2021/07/23 09:23:54;;;;;;;4.15;2.67;;;;;;;;;;5028820;28;20463;-57
2021/07/23 09:26:20;;;;;;;3.33;2.45;;;;;;;;;;5009353;28;20055;-59
2021/07/23 09:28:45;;;;;;;2.97;2.28;;;;;;;;;;5011243;28;20373;-58
2021/07/23 09:31:19;;;;;;;6.43;2.70;;;;;;;;;;5018007;28;20380;-58
2021/07/23 09:33:46;;;;;;;4.32;2.67;;;;;;;;;;5001157;28;20032;-58
2021/07/23 09:36:14;;;;;;;5.60;2.67;;;;;;;;;;5012529;28;20087;-58
2021/07/23 09:38:42;;;;;;;6.28;2.92;;;;;;;;;;5026021;28;21702;-58
2021/07/23 09:41:13;;;;;;;8.75;2.72;;;;;;;;;;5024397;28;20025;-58
2021/07/23 09:43:40;;;;;;;5.95;2.60;;;;;;;;;;5011108;28;20035;-58
2021/07/23 09:46:17;;;;;;;5.22;2.65;;;;;;;;;;5029039;28;20037;-58
2021/07/23 09:48:48;;;;;;;3.97;2.60;;;;;;;;;;5011847;28;20044;-59
2021/07/23 09:51:17;;;;;;;3.95;2.45;;;;;;;;;;5027299;28;20080;-58
2021/07/23 09:53:50;;;;;;;4.15;2.45;;;;;;;;;;5030430;28;20039;-59
2021/07/23 09:56:17;;;;;;;2.58;2.17;;;;;;;;;;5003176;28;20123;-58
2021/07/23 09:58:44;;;;;;;3.67;2.45;;;;;;;;;;5027019;28;20017;-59
2021/07/23 10:01:19;;;;;;;3.95;2.30;;;;;;;;;;5025684;28;20033;-59
2021/07/23 10:03:55;;;;;;;9.00;2.80;;;;;;;;;;5042131;28;20040;-59
2021/07/23 10:06:34;;;;;;;4.10;2.50;;;;;;;;;;5011206;28;20037;-59
2021/07/23 10:09:09;;;;;;;8.05;2.38;;;;;;;;;;5026136;28;20481;-59
2021/07/23 10:11:41;;;;;;;7.63;2.28;;;;;;;;;;5028484;28;20044;-59
2021/07/23 10:14:08;;;;;;;3.65;2.05;;;;;;;;;;5028403;28;20119;-58
2021/07/23 10:16:37;;;;;;;5.93;2.20;;;;;;;;;;5030889;28;20049;-59
2021/07/23 10:19:05;;;;;;;3.63;2.00;;;;;;;;;;5033697;28;20041;-59
2021/07/23 10:21:30;;;;;;;3.55;1.80;;;;;;;;;;5033285;28;20090;-58
2021/07/23 10:23:56;;;;;;;4.22;1.90;;;;;;;;;;5032968;28;20033;-59
2021/07/23 10:26:25;;;;;;;5.22;2.28;;;;;;;;;;5033426;28;20024;-59
2021/07/23 10:28:54;;;;;;;2.78;2.13;;;;;;;;;;5032065;28;20083;-59
2021/07/23 10:31:27;;;;;;;3.72;2.25;;;;;;;;;;5001872;28;20040;-58
2021/07/23 10:33:55;;;;;;;5.63;2.67;;;;;;;;;;5033468;28;20040;-60
2021/07/23 10:36:26;;;;;;;3.65;2.45;;;;;;;;;;5035268;28;20033;-58
2021/07/23 10:39:11;;;;;;;8.10;2.83;;;;;;;;;;5031507;28;20032;-58
2021/07/23 10:41:38;;;;;;;;;;;;;;;;;;5032156;28;20102;-59
2021/07/23 10:44:11;;;;;;;4.75;2.50;;;;;;;;;;5032470;28;19912;-59
2021/07/23 10:46:45;;;;;;;4.70;2.53;;;;;;;;;;5031324;28;20033;-58
2021/07/23 10:49:34;;;;;;;6.57;3.00;;;;;;;;;;5031502;28;20029;-59
2021/07/23 10:52:01;;;;;;;7.90;2.90;;;;;;;;;;5047492;28;20525;-59
2021/07/23 10:54:28;;;;;;;7.18;2.90;;;;;;;;;;5031000;28;20036;-59
2021/07/23 10:56:57;;;;;;;11.73;2.95;;;;;;;;;;5030825;28;20033;-59
2021/07/23 10:59:41;;;;;;;3.95;2.35;;;;;;;;;;5032241;28;20127;-59
2021/07/23 11:05:46;;;;;;;4.80;2.28;;;;;;;;;;5029894;28;20322;-58
2021/07/23 11:08:15;;;;;;;3.80;2.28;;;;;;;;;;5029359;28;20020;-58
2021/07/23 11:10:40;;;;;;;3.53;2.17;;;;;;;;;;5020050;28;20059;-58
2021/07/23 11:13:11;;;;;;;5.07;2.10;;;;;;;;;;4996342;28;21044;-58
2021/07/23 11:15:41;;;;;;;4.57;2.38;;;;;;;;;;5032362;28;20021;-58
2021/07/23 11:18:42;;;;;;;3.13;1.90;;;;;;;;;;5031372;28;20033;-58
2021/07/23 11:21:11;;;;;;;3.95;2.03;;;;;;;;;;5030813;28;20060;-58
2021/07/23 11:23:41;;;;;;;6.10;2.35;;;;;;;;;;5032475;28;20025;-59
2021/07/23 11:26:10;;;;;;;4.70;2.05;;;;;;;;;;5030471;28;20033;-58
2021/07/23 11:28:46;;;;;;;5.15;2.60;;;;;;;;;;5016480;28;20033;-59
2021/07/23 11:31:41;;;;;;;8.52;2.33;;;;;;;;;;5029827;28;20438;-58
2021/07/23 11:34:21;;;;;;;5.22;1.77;;;;;;;;;;5026636;28;20048;-58
2021/07/23 11:36:47;;;;;;;6.88;2.17;;;;;;;;;;5029545;28;20029;-59
2021/07/23 11:39:15;;;;;;;6.90;2.25;;;;;;;;;;5028958;28;22401;-58
2021/07/23 11:41:59;;;;;;;7.45;2.60;;;;;;;;;;5030690;28;20037;-58
2021/07/23 11:44:26;;;;;;;3.78;1.88;;;;;;;;;;5014114;28;20712;-58
2021/07/23 11:50:27;;;;;;;7.57;1.92;;;;;;;;;;5031151;28;20094;-61
2021/07/23 11:56:28;;;;;;;3.55;2.28;;;;;;;;;;5029929;28;20058;-58
2021/07/23 11:59:06;;;;;;;6.03;2.80;;;;;;;;;;5025771;28;20025;-59
2021/07/23 12:01:35;;;;;;;5.38;2.15;;;;;;;;;;5007670;28;20056;-59
2021/07/23 12:04:00;;;;;;;4.38;2.10;;;;;;;;;;5028620;28;20106;-59
2021/07/23 12:06:31;;;;;;;7.80;1.90;;;;;;;;;;5030481;28;20072;-58
2021/07/23 12:09:18;;;;;;;5.85;2.17;;;;;;;;;;5030091;28;20158;-59
2021/07/23 12:11:44;;;;;;;3.65;2.00;;;;;;;;;;5029842;28;20047;-59
2021/07/23 12:14:46;;;;;;;2.47;1.88;;;;;;;;;;5029694;28;20041;-59
2021/07/23 12:17:13;;;;;;;3.13;1.85;;;;;;;;;;5027861;28;20072;-59
2021/07/23 12:19:40;;;;;;;2.95;1.98;;;;;;;;;;5034987;28;20017;-59
2021/07/23 12:22:10;;;;;;;6.85;2.50;;;;;;;;;;5029068;28;20033;-58
2021/07/23 12:24:37;;;;;;;4.13;1.90;;;;;;;;;;5028901;28;20111;-58
2021/07/23 12:27:19;;;;;;;3.50;2.15;;;;;;;;;;5016559;28;20036;-58
2021/07/23 12:33:30;;;;;;;4.72;2.28;;;;;;;;;;5028220;28;20043;-59
2021/07/23 12:36:18;;;;;;;4.72;2.45;;;;;;;;;;5027812;28;20486;-60
2021/07/23 12:39:01;;;;;;;4.82;2.38;;;;;;;;;;5004433;28;20032;-59
2021/07/23 12:41:27;;;;;;;4.45;1.98;;;;;;;;;;5017068;28;20025;-58
2021/07/23 12:44:02;;;;;;;4.13;2.33;;;;;;;;;;5028604;28;20021;-59
2021/07/23 12:46:30;;;;;;;5.20;2.50;;;;;;;;;;5013271;28;20044;-58
2021/07/23 12:49:21;;;;;;;4.78;2.10;;;;;;;;;;5030079;28;20036;-59
2021/07/23 12:51:59;;;;;;;10.35;2.47;;;;;;;;;;5030444;28;20183;-58
2021/07/23 12:58:00;;;;;;;5.63;2.65;;;;;;;;;;5031007;28;20074;-59
2021/07/23 13:00:26;;;;;;;5.68;1.77;;;;;;;;;;5027407;28;20044;-59
2021/07/23 13:02:55;;;;;;;3.83;2.00;;;;;;;;;;5041745;28;20048;-59
2021/07/23 13:05:31;;;;;;;5.10;2.03;;;;;;;;;;5027333;28;20094;-59
2021/07/23 13:08:04;;;;;;;4.35;2.05;;;;;;;;;;5028736;28;20044;-60
2021/07/23 13:10:35;;;;;;;4.20;1.90;;;;;;;;;;5028679;28;20047;-59
2021/07/23 13:13:29;;;;;;;4.60;2.70;;;;;;;;;;5029029;28;20036;-59
2021/07/23 13:15:54;;;;;;;8.60;2.13;;;;;;;;;;5025571;28;20045;-59
2021/07/23 13:18:25;;;;;;;8.07;1.80;;;;;;;;;;4996643;28;21065;-59
2021/07/23 13:20:50;;;;;;;8.95;2.35;;;;;;;;;;5027359;28;20028;-59
2021/07/23 13:23:16;;;;;;;2.65;1.80;;;;;;;;;;5030743;28;20017;-59
2021/07/23 13:25:41;;;;;;;7.43;1.80;;;;;;;;;;5028469;28;20032;-59
2021/07/23 13:28:09;;;;;;;3.53;2.00;;;;;;;;;;5027860;28;20032;-60
2021/07/23 13:30:35;;;;;;;6.22;2.08;;;;;;;;;;5012336;28;20037;-59
2021/07/23 13:33:00;;;;;;;5.97;1.90;;;;;;;;;;5043454;28;20484;-60
2021/07/23 13:35:57;;;;;;;5.80;1.83;;;;;;;;;;5028953;28;20028;-58
2021/07/23 13:38:26;;;;;;;3.70;2.05;;;;;;;;;;5025307;28;20071;-60
2021/07/23 13:40:56;;;;;;;4.22;2.08;;;;;;;;;;5013493;28;20043;-60
2021/07/23 13:43:23;;;;;;;2.90;2.00;;;;;;;;;;5027292;28;20848;-60
2021/07/23 13:45:58;;;;;;;3.15;2.30;;;;;;;;;;5030808;28;20143;-59
2021/07/23 13:48:24;;;;;;;3.25;2.10;;;;;;;;;;5015325;28;20484;-59
2021/07/23 13:50:50;;;;;;;4.30;2.00;;;;;;;;;;5028462;28;20138;-59
2021/07/23 13:53:16;;;;;;;4.47;2.20;;;;;;;;;;5030828;28;20033;-62
2021/07/23 13:55:42;;;;;;;2.55;1.95;;;;;;;;;;5015395;28;20029;-59
2021/07/23 13:58:35;;;;;;;9.35;2.20;;;;;;;;;;5030902;28;20111;-60
2021/07/23 14:01:00;;;;;;;3.85;2.42;;;;;;;;;;5032015;28;20033;-59
2021/07/23 14:03:26;;;;;;;4.78;2.38;;;;;;;;;;5030747;28;20028;-60
2021/07/23 14:05:54;;;;;;;5.75;2.22;;;;;;;;;;5033440;28;20128;-59
2021/07/23 14:08:22;;;;;;;4.35;2.10;;;;;;;;;;5000669;28;20037;-59
2021/07/23 14:10:47;;;;;;;5.45;2.05;;;;;;;;;;5032428;28;20044;-59
2021/07/23 14:13:13;;;;;;;4.22;2.15;;;;;;;;;;5015301;28;20029;-59
2021/07/23 14:15:41;;;;;;;2.85;1.95;;;;;;;;;;5032963;28;20059;-59
2021/07/23 14:18:12;;;;;;;4.55;2.40;;;;;;;;;;5014078;28;20068;-59
2021/07/23 14:20:40;;;;;;;5.82;1.88;;;;;;;;;;5027865;28;20044;-59
2021/07/23 14:23:05;;;;;;;3.75;2.25;;;;;;;;;;5030409;28;20567;-59
2021/07/23 14:29:07;;;;;;;5.50;2.20;;;;;;;;;;5029947;28;20769;-59
2021/07/23 14:31:32;;;;;;;3.58;2.25;;;;;;;;;;5032524;28;20025;-59
2021/07/23 14:33:57;;;;;;;3.50;2.00;;;;;;;;;;5011659;28;20035;-60
2021/07/23 14:36:26;;;;;;;3.08;1.98;;;;;;;;;;5032476;28;20524;-60
2021/07/23 14:38:53;;;;;;;6.22;2.28;;;;;;;;;;5030290;28;20039;-59
2021/07/23 14:41:22;;;;;;;4.60;2.08;;;;;;;;;;5030309;28;20211;-60
2021/07/23 14:44:21;;;;;;;3.38;1.88;;;;;;;;;;5032521;28;20044;-60
2021/07/23 14:47:02;;;;;;;3.88;1.88;;;;;;;;;;5031497;28;20095;-59
2021/07/23 14:49:28;;;;;;;4.63;1.95;;;;;;;;;;5030426;28;20032;-59
2021/07/23 14:51:56;;;;;;;4.35;2.08;;;;;;;;;;5031571;28;21966;-59
2021/07/23 14:54:22;;;;;;;3.47;1.88;;;;;;;;;;5012650;28;20040;-60
2021/07/23 14:56:47;;;;;;;5.03;1.92;;;;;;;;;;5004045;28;20064;-59
2021/07/23 14:59:13;;;;;;;4.55;2.08;;;;;;;;;;5030403;28;20052;-60
2021/07/23 15:01:41;;;;;;;3.30;1.95;;;;;;;;;;5032239;28;20033;-58
2021/07/23 15:04:06;;;;;;;4.63;1.77;;;;;;;;;;5032414;28;20039;-60
2021/07/23 15:06:32;;;;;;;4.47;2.10;;;;;;;;;;5029297;28;20033;-59
2021/07/23 15:09:01;;;;;;;4.47;1.80;;;;;;;;;;5031520;28;20042;-59
2021/07/23 15:11:26;;;;;;;4.22;1.83;;;;;;;;;;5014661;28;20033;-60
2021/07/23 15:13:57;;;;;;;3.53;2.03;;;;;;;;;;5013956;28;20053;-59
2021/07/23 15:16:23;;;;;;;7.78;2.30;;;;;;;;;;5030640;28;20519;-59
2021/07/23 15:18:55;;;;;;;5.78;2.30;;;;;;;;;;5029440;28;20930;-61
2021/07/23 15:21:24;;;;;;;3.47;2.05;;;;;;;;;;5031492;28;20044;-59
2021/07/23 15:23:49;;;;;;;3.78;2.00;;;;;;;;;;5011722;28;20035;-59
2021/07/23 15:26:18;;;;;;;3.72;1.42;;;;;;;;;;5027132;28;20025;-60
2021/07/23 15:28:43;;;;;;;4.20;1.90;;;;;;;;;;5014474;28;20340;-59
2021/07/23 15:31:09;;;;;;;3.65;2.17;;;;;;;;;;5004527;28;20741;-60
2021/07/23 15:33:38;;;;;;;1.85;1.70;;;;;;;;;;5005838;28;20071;-60
2021/07/23 15:36:05;;;;;;;4.70;2.53;;;;;;;;;;5007176;28;20075;-59